createdAt,value
2023-05-08T00:03:26.538Z,821.45
2023-05-08T00:08:28.809Z,823.30
2023-05-08T00:13:30.762Z,806.40
2023-05-08T00:18:34.060Z,807.08
2023-05-08T00:23:40.607Z,808.50
2023-05-08T00:28:43.070Z,793.75
2023-05-08T00:33:45.317Z,797.58
2023-05-08T00:38:51.190Z,802.40
2023-05-08T00:43:53.196Z,797.63
2023-05-08T00:48:55.633Z,791.00
2023-05-08T00:53:59.994Z,797.35
2023-05-08T00:59:04.321Z,803.45
2023-05-08T01:04:07.113Z,789.00
2023-05-08T01:09:09.119Z,802.28
2023-05-08T01:14:17.410Z,791.45
2023-05-08T01:19:49.601Z,775.75
2023-05-08T01:25:29.270Z,784.17
2023-05-08T01:30:37.130Z,760.90
2023-05-08T01:35:54.857Z,781.65
2023-05-08T01:41:15.548Z,789.47
2023-05-08T01:46:31.653Z,783.30
2023-05-08T01:51:40.524Z,777.05
2023-05-08T01:56:46.032Z,763.83
2023-05-08T02:01:49.637Z,781.92
2023-05-08T02:06:55.020Z,779.97
2023-05-08T02:11:59.825Z,787.97
2023-05-08T02:17:03.739Z,779.65
2023-05-08T02:22:08.148Z,774.92
2023-05-08T02:27:14.710Z,776.40
2023-05-08T02:32:21.065Z,795.63
2023-05-08T02:37:26.310Z,792.85
2023-05-08T02:42:28.308Z,771.17
2023-05-08T02:47:44.300Z,786.58
2023-05-08T02:53:08.290Z,781.30
2023-05-08T02:58:20.579Z,778.45
2023-05-08T03:03:47.035Z,778.80
2023-05-08T03:08:51.726Z,794.83
2023-05-08T03:13:57.185Z,776.75
2023-05-08T03:19:03.750Z,772.80
2023-05-08T03:24:10.219Z,781.03
2023-05-08T03:29:14.715Z,763.00
2023-05-08T03:34:21.725Z,769.75
2023-05-08T03:39:27.112Z,768.72
2023-05-08T03:44:30.736Z,777.75
2023-05-08T03:49:35.122Z,767.00
2023-05-08T03:54:38.392Z,789.35
2023-05-08T03:59:49.783Z,769.95
2023-05-08T04:05:01.463Z,773.80
2023-05-08T04:10:12.254Z,769.95
2023-05-08T04:15:22.689Z,766.67
2023-05-08T04:20:29.157Z,758.42
2023-05-08T04:25:36.570Z,746.67
2023-05-08T04:30:40.423Z,757.33
2023-05-08T04:35:43.437Z,745.45
2023-05-08T04:40:45.812Z,749.38
2023-05-08T04:45:47.826Z,754.97
2023-05-08T04:50:59.261Z,766.55
2023-05-08T04:56:01.904Z,740.33
2023-05-08T05:01:05.879Z,764.90
2023-05-08T05:06:08.671Z,755.85
2023-05-08T05:11:10.755Z,770.03
2023-05-08T05:16:15.340Z,776.03
2023-05-08T05:21:17.363Z,762.85
2023-05-08T05:26:19.981Z,754.80
2023-05-08T05:31:22.150Z,765.13
2023-05-08T05:36:25.082Z,768.60
2023-05-08T05:41:27.992Z,761.08
2023-05-08T05:46:33.050Z,782.70
2023-05-08T05:51:38.230Z,803.72
2023-05-08T05:56:49.704Z,817.33
2023-05-08T06:01:53.437Z,836.67
2023-05-08T06:06:55.762Z,844.50
2023-05-08T06:11:57.696Z,854.35
2023-05-08T06:17:03.967Z,859.00
2023-05-08T06:22:08.808Z,860.30
2023-05-08T06:27:12.286Z,880.13
2023-05-08T06:32:14.691Z,874.30
2023-05-08T06:37:16.581Z,883.88
2023-05-08T06:42:18.456Z,887.22
2023-05-08T06:47:22.134Z,892.05
2023-05-08T06:52:26.627Z,907.58
2023-05-08T06:57:30.343Z,905.60
2023-05-08T07:02:32.818Z,922.47
2023-05-08T07:07:34.732Z,928.72
2023-05-08T07:12:39.142Z,910.53
2023-05-08T07:17:44.503Z,922.72
2023-05-08T07:22:52.692Z,918.85
2023-05-08T07:27:56.275Z,920.72
2023-05-08T07:32:58.178Z,923.80
2023-05-08T07:38:00.474Z,935.63
2023-05-08T07:43:02.414Z,929.25
2023-05-08T07:48:05.959Z,931.75
2023-05-08T07:53:08.967Z,920.83
2023-05-08T07:58:10.832Z,897.78
2023-05-08T08:03:12.800Z,891.80
2023-05-08T08:08:14.736Z,913.75
2023-05-08T08:13:17.784Z,917.65
2023-05-08T08:18:20.088Z,894.15
2023-05-08T08:23:21.972Z,896.33
2023-05-08T08:28:23.854Z,894.58
2023-05-08T08:33:28.786Z,899.25
2023-05-08T08:38:30.819Z,912.67
2023-05-08T08:43:33.151Z,916.42
2023-05-08T08:48:38.906Z,923.78
2023-05-08T08:53:46.673Z,923.97
2023-05-08T08:58:56.532Z,949.30
2023-05-08T09:03:59.741Z,952.05
2023-05-08T09:09:02.845Z,958.10
2023-05-08T09:14:08.019Z,967.75
2023-05-08T09:19:24.932Z,974.33
2023-05-08T09:24:54.554Z,985.97
2023-05-08T09:30:27.381Z,999.08
2023-05-08T09:35:36.700Z,982.35
2023-05-08T09:40:38.560Z,976.35
2023-05-08T09:45:43.552Z,975.92
2023-05-08T09:50:46.564Z,968.95
2023-05-08T09:55:48.574Z,983.60
2023-05-08T10:00:50.758Z,990.10
2023-05-08T10:05:54.227Z,999.28
2023-05-08T10:11:13.882Z,999.90
2023-05-08T10:16:21.234Z,999.90
2023-05-08T10:21:54.005Z,999.90
2023-05-08T10:27:17.582Z,999.90
2023-05-08T10:32:24.997Z,999.90
2023-05-08T10:37:30.921Z,999.90
2023-05-08T10:42:36.175Z,999.90
2023-05-08T10:48:04.354Z,999.90
2023-05-08T10:53:50.128Z,999.90
2023-05-08T10:58:57.787Z,999.90
2023-05-08T11:04:09.221Z,999.90
2023-05-08T11:09:27.077Z,999.90
2023-05-08T11:14:31.620Z,999.90
2023-05-08T11:19:39.898Z,999.90
2023-05-08T11:24:56.587Z,999.90
2023-05-08T11:30:25.856Z,999.90
2023-05-08T11:35:57.331Z,999.90
2023-05-08T11:41:05.176Z,999.90
2023-05-08T11:46:21.627Z,999.90
2023-05-08T11:51:23.566Z,999.90
2023-05-08T11:56:26.552Z,999.90
2023-05-08T12:01:31.348Z,999.90
2023-05-08T12:06:34.318Z,999.90
2023-05-08T12:11:36.347Z,999.90
2023-05-08T12:16:39.597Z,999.90
2023-05-08T12:21:51.580Z,999.90
2023-05-08T12:26:55.353Z,999.90
2023-05-08T12:31:57.411Z,999.90
2023-05-08T12:37:09.228Z,999.90
2023-05-08T12:42:12.119Z,999.90
2023-05-08T12:47:18.978Z,999.90
2023-05-08T12:57:26.091Z,999.90
2023-05-08T13:02:29.601Z,999.90
2023-05-08T13:07:33.186Z,999.90
2023-05-08T13:12:35.048Z,999.90
2023-05-08T13:17:36.943Z,999.90
2023-05-08T13:22:39.405Z,999.90
2023-05-08T13:27:41.316Z,999.90
2023-05-08T13:32:46.491Z,999.90
2023-05-08T13:37:49.241Z,999.90
2023-05-08T13:42:51.649Z,999.90
2023-05-08T13:47:54.480Z,999.90
2023-05-08T13:52:56.433Z,999.90
2023-05-08T13:58:01.462Z,999.90
2023-05-08T14:03:03.439Z,999.90
2023-05-08T14:08:06.449Z,999.90
2023-05-08T14:13:08.361Z,999.90
2023-05-08T14:18:11.702Z,999.90
2023-05-08T14:23:13.829Z,999.90
2023-05-08T14:28:15.752Z,999.90
2023-05-08T14:33:19.349Z,999.90
2023-05-08T14:38:21.466Z,999.90
2023-05-08T14:43:23.662Z,999.90
2023-05-08T14:48:34.830Z,999.90
2023-05-08T14:53:37.379Z,999.90
2023-05-08T14:58:39.777Z,999.90
2023-05-08T15:03:42.176Z,999.90
2023-05-08T15:08:47.113Z,999.90
2023-05-08T15:13:49.101Z,999.90
2023-05-08T15:18:59.001Z,999.90
2023-05-08T15:24:03.762Z,999.90
2023-05-08T15:29:05.700Z,999.90
2023-05-08T15:34:07.560Z,999.90
2023-05-08T15:39:09.661Z,999.90
2023-05-08T15:44:11.523Z,999.90
2023-05-08T15:49:13.950Z,999.90
2023-05-08T15:54:16.534Z,999.90
2023-05-08T15:59:19.246Z,999.90
2023-05-08T16:04:23.004Z,999.90
2023-05-08T16:09:26.666Z,999.90
2023-05-08T16:14:28.524Z,999.90
2023-05-08T16:24:50.476Z,999.90
2023-05-08T16:29:53.460Z,999.90
2023-05-08T16:34:55.868Z,999.90
2023-05-08T16:39:58.261Z,999.90
2023-05-08T16:45:00.189Z,999.90
2023-05-08T16:50:05.688Z,999.90
2023-05-08T16:55:08.261Z,999.90
2023-05-08T17:00:13.391Z,999.90
2023-05-08T17:05:15.826Z,999.90
2023-05-08T17:10:19.234Z,999.90
2023-05-08T17:15:21.661Z,999.90
2023-05-08T17:20:23.715Z,999.20
2023-05-08T17:25:25.622Z,999.90
2023-05-08T17:30:28.073Z,999.90
2023-05-08T17:35:30.019Z,997.28
2023-05-08T17:40:36.821Z,999.90
2023-05-08T17:45:38.968Z,999.90
2023-05-08T17:50:42.309Z,999.75
2023-05-08T17:55:45.842Z,999.90
2023-05-08T18:06:06.400Z,996.25
2023-05-08T18:11:18.420Z,995.70
2023-05-08T18:16:21.284Z,992.47
2023-05-08T18:21:28.916Z,982.55
2023-05-08T18:26:30.862Z,976.65
2023-05-08T18:31:33.875Z,984.05
2023-05-08T18:36:36.096Z,978.85
2023-05-08T18:41:37.995Z,969.42
2023-05-08T18:46:43.830Z,967.85
2023-05-08T18:51:46.308Z,960.55
2023-05-08T18:56:48.183Z,954.63
2023-05-08T19:01:54.777Z,954.75
2023-05-08T19:06:57.145Z,950.60
2023-05-08T19:11:59.346Z,954.08
2023-05-08T19:17:03.863Z,947.35
2023-05-08T19:22:06.282Z,938.65
2023-05-08T19:27:08.133Z,949.60
2023-05-08T19:32:10.441Z,935.08
2023-05-08T19:37:12.271Z,951.97
2023-05-08T19:42:14.218Z,930.22
2023-05-08T19:47:16.561Z,936.63
2023-05-08T19:52:18.606Z,937.65
2023-05-08T19:57:21.244Z,929.88
2023-05-08T20:02:23.219Z,930.63
2023-05-08T20:07:27.712Z,933.83
2023-05-08T20:12:35.071Z,915.92
2023-05-08T20:17:36.971Z,918.45
2023-05-08T20:22:39.001Z,907.45
2023-05-08T20:27:40.945Z,921.95
2023-05-08T20:32:45.692Z,917.45
2023-05-08T20:37:49.751Z,899.83
2023-05-08T20:42:51.653Z,916.25
2023-05-08T20:47:54.107Z,916.85
2023-05-08T20:52:58.270Z,915.75
2023-05-08T20:58:00.666Z,909.10
2023-05-08T21:03:03.007Z,910.65
2023-05-08T21:08:08.762Z,909.67
2023-05-08T21:13:11.179Z,901.45
2023-05-08T21:18:14.619Z,890.13
2023-05-08T21:23:20.536Z,888.75
2023-05-08T21:28:23.447Z,884.63
2023-05-08T21:33:26.783Z,884.85
2023-05-08T21:38:30.757Z,886.10
2023-05-08T21:43:32.698Z,881.65
2023-05-08T21:48:35.069Z,885.10
2023-05-08T21:53:41.315Z,885.15
2023-05-08T21:58:43.744Z,884.38
2023-05-08T22:03:48.738Z,873.08
2023-05-08T22:08:50.837Z,869.67
2023-05-08T22:14:00.939Z,866.03
2023-05-08T22:19:02.875Z,879.10
2023-05-08T22:24:05.269Z,869.08
2023-05-08T22:29:07.128Z,865.33
2023-05-08T22:34:09.028Z,867.10
2023-05-08T22:39:12.551Z,878.35
2023-05-08T22:44:14.395Z,862.95
2023-05-08T22:49:17.271Z,860.85
2023-05-08T22:54:20.195Z,873.85
2023-05-08T22:59:22.345Z,866.05
2023-05-08T23:04:24.291Z,881.67
2023-05-08T23:09:26.205Z,864.13
2023-05-08T23:14:28.100Z,855.80
2023-05-08T23:19:29.996Z,856.38
2023-05-08T23:24:35.651Z,858.53
2023-05-08T23:29:37.591Z,859.53
2023-05-08T23:34:40.553Z,869.15
2023-05-08T23:39:42.806Z,844.40
2023-05-08T23:44:45.660Z,861.78
2023-05-08T23:49:47.593Z,856.70
2023-05-08T23:54:50.540Z,858.08
2023-05-08T23:59:55.670Z,841.60
